Time;durP1;ratioP1;P1;durP2;ratioP2;P2;SDS_P1;SDS_P2;PMS_P1;PMS_P2;Temp;Humidity;BMP_temperature;BMP_pressure;BME280_temperature;BME280_humidity;BME280_pressure;Samples;Min_cycle;Max_cycle;Signal;HPM_P1;HPM_P2
2024/01/09 00:02:16;;;;;;;7.27;6.00;;;-2.70;99.90;;;;;;5092705;28;20244;-69
2024/01/09 00:04:42;;;;;;;6.77;5.67;;;-2.70;99.90;;;;;;5091877;28;20608;-78
2024/01/09 00:07:07;;;;;;;7.20;6.57;;;-2.60;99.90;;;;;;5094876;28;20198;-71
2024/01/09 00:09:36;;;;;;;6.50;5.90;;;-2.60;99.90;;;;;;5095327;28;20634;-69
2024/01/09 00:12:02;;;;;;;5.65;5.20;;;-2.60;99.90;;;;;;5096697;28;20638;-69
2024/01/09 00:14:28;;;;;;;6.80;6.10;;;-2.50;99.90;;;;;;5096525;28;20173;-69
2024/01/09 00:16:54;;;;;;;6.47;5.87;;;-2.50;99.90;;;;;;5094614;28;20408;-78
2024/01/09 00:19:20;;;;;;;6.63;5.87;;;-2.40;99.90;;;;;;5095512;28;20924;-78
2024/01/09 00:21:49;;;;;;;8.80;6.07;;;-2.40;99.90;;;;;;5095322;28;20640;-73
2024/01/09 00:24:15;;;;;;;7.75;5.88;;;-2.30;99.90;;;;;;5096496;28;20172;-77
2024/01/09 00:26:42;;;;;;;9.10;7.10;;;-2.30;99.90;;;;;;5095462;28;20177;-72
2024/01/09 00:29:08;;;;;;;6.22;5.45;;;-2.20;99.90;;;;;;5094872;28;20185;-70
2024/01/09 00:31:33;;;;;;;6.20;5.40;;;-2.20;99.90;;;;;;5095888;28;20239;-69
2024/01/09 00:33:59;;;;;;;6.03;5.53;;;-2.10;99.90;;;;;;5096326;28;20461;-73
2024/01/09 00:36:25;;;;;;;7.20;6.10;;;-2.10;99.90;;;;;;5094396;28;20265;-70
2024/01/09 00:38:51;;;;;;;7.47;6.30;;;-2.00;99.90;;;;;;5096122;28;20550;-70
2024/01/09 00:41:16;;;;;;;10.60;6.07;;;-2.00;99.90;;;;;;5094878;28;20533;-70
2024/01/09 00:43:42;;;;;;;7.80;6.70;;;-2.00;99.90;;;;;;5096189;28;20416;-68
2024/01/09 00:46:08;;;;;;;17.00;6.40;;;-1.90;99.90;;;;;;5095000;28;20441;-70
2024/01/09 00:48:34;;;;;;;8.43;6.60;;;-1.80;99.90;;;;;;5095339;28;20302;-75
2024/01/09 00:51:00;;;;;;;7.53;6.25;;;-1.80;99.90;;;;;;5093763;28;20208;-78
2024/01/09 00:53:25;;;;;;;7.00;5.77;;;-1.80;99.90;;;;;;5095954;28;20193;-78
2024/01/09 00:55:51;;;;;;;6.97;6.27;;;-1.70;99.90;;;;;;5094890;28;20170;-70
2024/01/09 00:58:17;;;;;;;6.57;5.90;;;-1.70;99.90;;;;;;5095787;28;20739;-69
2024/01/09 01:00:43;;;;;;;7.17;5.97;;;-1.60;99.90;;;;;;5095733;28;20896;-69
2024/01/09 01:03:09;;;;;;;8.37;7.00;;;-1.50;99.90;;;;;;5095810;28;20391;-72
2024/01/09 01:05:34;;;;;;;8.20;6.27;;;-1.50;99.90;;;;;;5094291;28;20189;-74
2024/01/09 01:08:00;;;;;;;7.83;7.03;;;-1.40;99.90;;;;;;5074837;28;20210;-76
2024/01/09 01:10:25;;;;;;;5.93;5.33;;;-1.40;99.90;;;;;;5073863;28;20204;-70
2024/01/09 01:12:51;;;;;;;6.67;6.03;;;-1.30;99.90;;;;;;5075369;28;20181;-69
2024/01/09 01:15:17;;;;;;;7.00;5.73;;;-1.20;99.90;;;;;;5074308;28;20162;-77
2024/01/09 01:17:42;;;;;;;8.30;6.70;;;-1.20;99.90;;;;;;5074640;28;20186;-69
2024/01/09 01:20:10;;;;;;;7.33;6.67;;;-1.10;99.90;;;;;;5088173;28;20177;-69
2024/01/09 01:22:36;;;;;;;7.85;7.03;;;-1.10;99.90;;;;;;5066012;28;20185;-70
2024/01/09 01:25:02;;;;;;;6.60;6.03;;;-1.10;99.90;;;;;;5053201;28;20183;-74
2024/01/09 01:27:28;;;;;;;7.30;6.18;;;-1.10;99.90;;;;;;5054895;28;20652;-76
2024/01/09 01:29:53;;;;;;;8.03;7.23;;;-1.10;99.90;;;;;;5054253;28;20186;-71
2024/01/09 01:32:19;;;;;;;7.93;7.17;;;-1.10;99.90;;;;;;5054838;28;20596;-69
2024/01/09 01:34:45;;;;;;;5.97;5.00;;;-1.00;99.90;;;;;;5054112;28;20167;-68
2024/01/09 01:37:11;;;;;;;7.00;6.32;;;-0.90;99.90;;;;;;5071418;28;20439;-78
2024/01/09 01:39:37;;;;;;;6.43;5.97;;;-0.90;99.90;;;;;;5095166;28;20622;-73
2024/01/09 01:42:03;;;;;;;7.70;5.70;;;-0.80;99.90;;;;;;5095114;28;20169;-77
2024/01/09 01:44:29;;;;;;;7.00;6.47;;;-0.90;99.90;;;;;;5092981;28;20208;-73
2024/01/09 01:46:55;;;;;;;10.23;6.60;;;-0.80;99.90;;;;;;5093853;28;20422;-70
2024/01/09 01:49:21;;;;;;;7.32;5.90;;;-0.80;99.90;;;;;;5093798;28;20217;-78
2024/01/09 01:51:50;;;;;;;6.88;6.18;;;-0.80;99.90;;;;;;5071590;28;20674;-70
2024/01/09 01:54:16;;;;;;;9.23;6.93;;;-0.80;99.90;;;;;;5054557;28;20177;-69
2024/01/09 01:56:44;;;;;;;8.25;6.43;;;-0.70;99.90;;;;;;5052140;28;20171;-69
2024/01/09 01:59:10;;;;;;;7.38;6.60;;;-0.80;99.90;;;;;;5053337;28;20194;-77
2024/01/09 02:01:37;;;;;;;6.60;5.97;;;-0.80;99.90;;;;;;5085729;28;20216;-77
2024/01/09 02:04:03;;;;;;;7.68;6.20;;;-0.80;99.90;;;;;;5092635;28;20641;-76
2024/01/09 02:06:30;;;;;;;6.90;6.22;;;-0.80;99.90;;;;;;5093552;28;20534;-78
2024/01/09 02:08:56;;;;;;;6.60;6.00;;;-0.80;99.90;;;;;;5073855;28;20285;-70
2024/01/09 02:11:22;;;;;;;8.63;6.90;;;-0.80;99.90;;;;;;5074073;28;20197;-71
2024/01/09 02:13:47;;;;;;;8.70;6.10;;;-0.80;99.90;;;;;;5074090;28;20710;-68
2024/01/09 02:16:13;;;;;;;8.53;6.13;;;-0.80;99.90;;;;;;5073220;28;20170;-68
2024/01/09 02:18:39;;;;;;;9.57;7.00;;;-0.80;99.90;;;;;;5072843;28;20650;-69
2024/01/09 02:21:05;;;;;;;6.37;5.70;;;-0.80;99.90;;;;;;5073554;28;20173;-70
2024/01/09 02:23:31;;;;;;;7.27;5.83;;;-0.70;99.90;;;;;;5090138;28;20169;-76
2024/01/09 02:25:57;;;;;;;6.30;5.73;;;-0.80;99.90;;;;;;5091928;28;20411;-76
2024/01/09 02:28:27;;;;;;;10.63;6.00;;;-0.80;99.90;;;;;;5086241;28;20208;-78
2024/01/09 02:30:54;;;;;;;10.13;6.15;;;-0.80;99.90;;;;;;5072614;28;20178;-69
2024/01/09 02:33:20;;;;;;;6.15;5.55;;;-0.70;99.90;;;;;;5073816;28;20166;-77
2024/01/09 02:35:46;;;;;;;6.22;5.60;;;-0.70;99.90;;;;;;5072822;28;20556;-69
2024/01/09 02:38:12;;;;;;;6.37;5.70;;;-0.60;99.90;;;;;;5059584;28;20195;-77
2024/01/09 02:40:38;;;;;;;10.97;7.60;;;-0.60;99.90;;;;;;5051774;28;20170;-77
2024/01/09 02:43:04;;;;;;;8.17;6.37;;;-0.50;99.90;;;;;;5053563;28;20167;-72
2024/01/09 02:45:30;;;;;;;6.67;5.90;;;-0.50;99.90;;;;;;5052403;28;20759;-72
2024/01/09 02:47:56;;;;;;;7.97;6.00;;;-0.60;99.90;;;;;;5054460;28;20460;-78
2024/01/09 02:50:21;;;;;;;6.60;5.87;;;-0.50;99.90;;;;;;5053473;28;20173;-68
2024/01/09 02:52:47;;;;;;;7.17;5.10;;;-0.60;99.90;;;;;;5070092;28;20169;-73
2024/01/09 02:55:13;;;;;;;6.63;6.03;;;-0.60;99.90;;;;;;5092603;28;20235;-74
2024/01/09 02:57:40;;;;;;;6.37;5.97;;;-0.50;99.90;;;;;;5076871;28;20497;-68
2024/01/09 03:00:09;;;;;;;6.30;5.57;;;-0.50;99.90;;;;;;5073369;28;20189;-78
2024/01/09 03:02:35;;;;;;;6.50;5.47;;;-0.50;99.90;;;;;;5073385;28;20399;-78
2024/01/09 03:05:03;;;;;;;6.20;5.70;;;-0.50;99.90;;;;;;5072326;28;20178;-78
2024/01/09 03:07:28;;;;;;;6.43;5.45;;;-0.40;99.90;;;;;;5080407;28;20201;-78
2024/01/09 03:09:54;;;;;;;5.83;4.50;;;-0.60;99.90;;;;;;5093192;28;20542;-78
2024/01/09 03:12:19;;;;;;;5.53;5.03;;;-0.60;99.90;;;;;;5093420;28;20161;-69
2024/01/09 03:14:45;;;;;;;7.93;4.60;;;-0.50;99.90;;;;;;5091039;28;20699;-71
2024/01/09 03:17:11;;;;;;;5.10;4.70;;;-0.50;99.90;;;;;;5092537;28;20573;-69
2024/01/09 03:19:37;;;;;;;4.27;3.87;;;-0.40;99.90;;;;;;5093240;28;20158;-70
2024/01/09 03:22:03;;;;;;;7.83;5.43;;;-0.30;99.90;;;;;;5092249;28;20949;-78
2024/01/09 03:24:29;;;;;;;5.67;4.60;;;-0.30;99.90;;;;;;5092977;28;20416;-77
2024/01/09 03:26:55;;;;;;;4.40;4.10;;;-0.30;99.90;;;;;;5092626;28;20438;-69
2024/01/09 03:29:20;;;;;;;3.63;3.43;;;-0.20;99.90;;;;;;5093037;28;20185;-76
2024/01/09 03:31:46;;;;;;;4.47;3.70;;;-0.20;99.90;;;;;;5093400;28;20172;-77
2024/01/09 03:34:12;;;;;;;4.53;4.20;;;-0.20;99.90;;;;;;5091610;28;20624;-76
2024/01/09 03:36:38;;;;;;;4.33;3.93;;;-0.20;99.90;;;;;;5091143;28;20165;-78
2024/01/09 03:39:05;;;;;;;5.13;4.43;;;-0.20;99.90;;;;;;5092936;28;20185;-74
2024/01/09 03:41:31;;;;;;;4.80;4.40;;;-0.20;99.90;;;;;;5097209;28;20438;-69
2024/01/09 03:43:58;;;;;;;5.80;4.27;;;-0.20;99.90;;;;;;5097239;28;20404;-71
2024/01/09 03:46:23;;;;;;;6.27;5.20;;;-0.20;99.90;;;;;;5096299;28;20403;-69
2024/01/09 03:48:49;;;;;;;8.70;5.03;;;-0.20;99.90;;;;;;5097028;28;20508;-74
2024/01/09 03:51:15;;;;;;;8.03;5.43;;;-0.20;99.90;;;;;;5082811;28;20556;-69
2024/01/09 03:53:40;;;;;;;5.93;5.33;;;-0.30;99.90;;;;;;5072979;28;20185;-78
2024/01/09 03:56:06;;;;;;;4.70;4.40;;;-0.30;99.90;;;;;;5075989;28;20170;-70
2024/01/09 03:58:32;;;;;;;4.90;4.40;;;-0.30;99.90;;;;;;5076722;28;20194;-69
2024/01/09 04:00:57;;;;;;;5.37;4.67;;;-0.40;99.90;;;;;;5076716;28;20171;-78
2024/01/09 04:03:23;;;;;;;5.30;4.90;;;-0.30;99.90;;;;;;5075512;28;20300;-71
2024/01/09 04:05:49;;;;;;;7.70;3.93;;;-0.30;99.90;;;;;;5085860;28;20207;-77
2024/01/09 04:08:14;;;;;;;4.53;4.23;;;-0.30;99.90;;;;;;5083805;28;20205;-72
2024/01/09 04:10:41;;;;;;;5.90;5.17;;;-0.30;99.90;;;;;;5076187;28;20170;-68
2024/01/09 04:13:06;;;;;;;7.53;4.33;;;-0.30;99.90;;;;;;5075817;28;20174;-70
2024/01/09 04:15:34;;;;;;;5.27;4.87;;;-0.40;99.90;;;;;;5075408;28;20889;-77
2024/01/09 04:18:01;;;;;;;5.32;3.97;;;-0.40;99.90;;;;;;5076265;28;20186;-71
2024/01/09 04:20:27;;;;;;;6.20;4.93;;;-0.70;99.90;;;;;;5083988;28;20260;-77
2024/01/09 04:22:52;;;;;;;5.10;4.70;;;-0.80;99.90;;;;;;5083608;28;20185;-71
2024/01/09 04:25:18;;;;;;;5.37;4.97;;;-0.80;99.90;;;;;;5055307;28;20179;-70
2024/01/09 04:27:44;;;;;;;4.77;4.37;;;-0.70;99.90;;;;;;5055925;28;20207;-71
2024/01/09 04:30:11;;;;;;;5.20;4.80;;;-0.80;99.90;;;;;;5055415;28;20227;-78
2024/01/09 04:32:36;;;;;;;5.95;5.35;;;-0.80;99.90;;;;;;5071775;28;20406;-70
2024/01/09 04:35:03;;;;;;;5.50;4.83;;;-0.90;99.90;;;;;;5062185;28;20701;-77
2024/01/09 04:37:28;;;;;;;5.57;5.17;;;-0.80;99.90;;;;;;5075512;28;20252;-78
2024/01/09 04:39:54;;;;;;;4.20;3.80;;;-0.80;99.90;;;;;;5055859;28;20418;-70
2024/01/09 04:42:20;;;;;;;5.77;4.73;;;-0.80;99.90;;;;;;5055946;28;20217;-69
2024/01/09 04:44:46;;;;;;;5.90;4.87;;;-0.90;99.90;;;;;;5054975;28;20175;-77
2024/01/09 04:47:15;;;;;;;5.13;4.63;;;-0.80;99.90;;;;;;5055225;28;20218;-78
2024/01/09 04:49:44;;;;;;;5.80;4.70;;;-0.80;99.90;;;;;;5070717;28;20564;-70
2024/01/09 04:52:10;;;;;;;5.67;5.27;;;-0.80;99.90;;;;;;5093993;28;20209;-70
2024/01/09 04:54:36;;;;;;;8.53;5.23;;;-0.90;99.90;;;;;;5093884;28;20466;-71
2024/01/09 04:57:02;;;;;;;4.87;4.57;;;-0.80;99.90;;;;;;5095898;28;20403;-77
2024/01/09 04:59:28;;;;;;;5.03;4.63;;;-0.70;99.90;;;;;;5095694;28;20227;-78
2024/01/09 05:01:54;;;;;;;4.87;4.43;;;-0.60;99.90;;;;;;5095734;28;20935;-80
2024/01/09 05:04:19;;;;;;;4.70;4.20;;;-0.70;99.90;;;;;;5076165;28;20706;-72
2024/01/09 05:06:45;;;;;;;6.00;4.27;;;-0.60;99.90;;;;;;5072669;28;20197;-72
2024/01/09 05:09:12;;;;;;;4.77;4.50;;;-0.70;99.90;;;;;;5084972;28;20324;-75
2024/01/09 05:11:37;;;;;;;6.15;5.32;;;-0.80;99.90;;;;;;5095645;28;20307;-76
2024/01/09 05:14:03;;;;;;;4.90;4.50;;;-0.90;99.90;;;;;;5095427;28;20685;-71
2024/01/09 05:16:29;;;;;;;4.90;4.50;;;-1.00;99.90;;;;;;5094645;28;20165;-79
2024/01/09 05:18:54;;;;;;;5.17;4.77;;;-1.00;99.90;;;;;;5093967;28;20425;-79
2024/01/09 05:21:21;;;;;;;7.17;4.90;;;-1.00;99.90;;;;;;5093878;28;20201;-78
2024/01/09 05:23:47;;;;;;;5.63;4.30;;;-1.00;99.90;;;;;;5093921;28;20178;-74
2024/01/09 05:26:13;;;;;;;9.40;5.10;;;-1.00;99.90;;;;;;5094243;28;20657;-71
2024/01/09 05:28:38;;;;;;;5.60;5.20;;;-0.90;99.90;;;;;;5095061;28;20197;-80
2024/01/09 05:31:04;;;;;;;5.07;4.67;;;-0.80;99.90;;;;;;5078712;28;20167;-71
2024/01/09 05:33:31;;;;;;;6.73;6.10;;;-0.80;99.90;;;;;;5054782;28;20226;-71
2024/01/09 05:35:57;;;;;;;6.57;6.00;;;-0.70;99.90;;;;;;5053859;28;20456;-74
2024/01/09 05:38:23;;;;;;;5.85;5.38;;;-0.80;99.90;;;;;;5067042;28;20251;-72
2024/01/09 05:40:49;;;;;;;10.40;5.93;;;-0.90;99.90;;;;;;5074469;28;20611;-72
2024/01/09 05:43:15;;;;;;;5.75;5.15;;;-1.00;99.90;;;;;;5073519;28;20202;-73
2024/01/09 05:45:41;;;;;;;4.83;4.53;;;-1.10;99.90;;;;;;5073832;28;20201;-77
2024/01/09 05:48:07;;;;;;;5.60;5.20;;;-1.10;99.90;;;;;;5074389;28;20205;-73
2024/01/09 05:50:32;;;;;;;6.30;5.80;;;-1.20;99.90;;;;;;5073276;28;20224;-80
2024/01/09 05:52:58;;;;;;;7.23;6.13;;;-1.20;99.90;;;;;;5074317;28;20440;-78
2024/01/09 05:55:23;;;;;;;7.30;6.60;;;-1.10;99.90;;;;;;5073652;28;20181;-80
2024/01/09 05:57:50;;;;;;;7.33;6.73;;;-1.00;99.90;;;;;;5073715;28;20181;-70
2024/01/09 06:00:16;;;;;;;6.50;5.97;;;-0.90;99.90;;;;;;5074253;28;20223;-77
2024/01/09 06:02:42;;;;;;;7.05;5.20;;;-0.90;99.90;;;;;;5072973;28;20405;-76
2024/01/09 06:05:08;;;;;;;7.88;7.18;;;-0.80;99.90;;;;;;5070830;28;20070;-70
2024/01/09 06:07:33;;;;;;;6.93;6.10;;;-0.70;99.90;;;;;;5059498;28;20214;-71
2024/01/09 06:09:59;;;;;;;7.23;6.53;;;-0.90;99.90;;;;;;5074207;28;20166;-71
2024/01/09 06:12:25;;;;;;;6.67;6.10;;;-1.00;99.90;;;;;;5074085;28;20527;-70
2024/01/09 06:14:51;;;;;;;7.73;6.30;;;-1.00;99.90;;;;;;5071779;28;20400;-74
2024/01/09 06:17:16;;;;;;;6.07;5.60;;;-1.00;99.90;;;;;;5072033;28;20566;-76
2024/01/09 06:19:42;;;;;;;6.00;5.50;;;-0.90;99.90;;;;;;5073533;28;20167;-75
2024/01/09 06:22:08;;;;;;;6.97;6.07;;;-0.80;99.90;;;;;;5073912;28;20200;-72
2024/01/09 06:24:33;;;;;;;6.50;5.90;;;-0.70;99.90;;;;;;5093171;28;20166;-74
2024/01/09 06:26:59;;;;;;;8.17;5.13;;;-0.70;99.90;;;;;;5093060;28;20177;-79
2024/01/09 06:29:28;;;;;;;6.10;5.60;;;-0.70;99.90;;;;;;5094010;28;20564;-70
2024/01/09 06:31:54;;;;;;;6.50;6.00;;;-0.60;99.90;;;;;;5094027;28;20161;-70
2024/01/09 06:34:19;;;;;;;8.20;7.27;;;-0.60;99.90;;;;;;5093551;28;20178;-80
2024/01/09 06:36:45;;;;;;;7.30;6.40;;;-0.70;99.90;;;;;;5091672;28;20185;-72
2024/01/09 06:39:12;;;;;;;7.30;6.68;;;-0.80;99.90;;;;;;5093874;28;20203;-80
2024/01/09 06:41:37;;;;;;;8.87;7.80;;;-0.80;99.90;;;;;;5093969;28;20169;-75
2024/01/09 06:44:03;;;;;;;6.80;6.30;;;-0.80;99.90;;;;;;5092813;28;20892;-78
2024/01/09 06:46:30;;;;;;;7.00;6.40;;;-0.80;99.90;;;;;;5072807;28;20210;-71
2024/01/09 06:48:55;;;;;;;6.55;5.93;;;-0.80;99.90;;;;;;5053313;28;20847;-70
2024/01/09 06:51:21;;;;;;;8.03;7.10;;;-0.80;99.90;;;;;;5053452;28;20258;-80
2024/01/09 06:53:47;;;;;;;7.13;6.53;;;-0.80;99.90;;;;;;5089172;28;20626;-77
2024/01/09 06:56:12;;;;;;;6.53;6.00;;;-0.80;99.90;;;;;;5072323;28;20569;-73
2024/01/09 06:58:39;;;;;;;7.40;6.80;;;-0.90;99.90;;;;;;5073207;28;20428;-80
2024/01/09 07:01:06;;;;;;;7.90;7.00;;;-0.90;99.90;;;;;;5073238;28;20177;-78
2024/01/09 07:03:32;;;;;;;5.90;5.40;;;-1.00;99.90;;;;;;5073207;28;20202;-81
2024/01/09 07:05:58;;;;;;;7.60;7.00;;;-1.10;99.90;;;;;;5072337;28;20232;-80
2024/01/09 07:08:24;;;;;;;7.78;6.95;;;-1.10;99.90;;;;;;5089721;28;20201;-70
2024/01/09 07:10:49;;;;;;;7.13;6.63;;;-1.10;99.90;;;;;;5093192;28;20166;-76
2024/01/09 07:13:15;;;;;;;8.07;7.20;;;-1.20;99.90;;;;;;5091617;28;20173;-69
2024/01/09 07:15:41;;;;;;;7.13;6.43;;;-1.20;99.90;;;;;;5090916;28;20405;-78
2024/01/09 07:18:07;;;;;;;7.73;6.50;;;-1.20;99.90;;;;;;5093361;28;20538;-73
2024/01/09 07:20:33;;;;;;;6.93;6.37;;;-1.30;99.90;;;;;;5093408;28;20162;-69
2024/01/09 07:22:58;;;;;;;7.30;6.70;;;-1.30;99.90;;;;;;5092135;28;20215;-70
2024/01/09 07:25:24;;;;;;;9.80;7.70;;;-1.40;99.90;;;;;;5092356;28;20168;-68
2024/01/09 07:27:50;;;;;;;9.40;7.50;;;-1.40;99.90;;;;;;5093116;28;20271;-70
2024/01/09 07:30:18;;;;;;;8.30;7.50;;;-1.40;99.90;;;;;;5092612;28;20162;-77
2024/01/09 07:32:43;;;;;;;8.02;7.32;;;-1.60;99.90;;;;;;5091905;28;20195;-69
2024/01/09 07:35:09;;;;;;;9.10;6.60;;;-1.70;99.90;;;;;;5092172;28;20172;-76
2024/01/09 07:37:35;;;;;;;9.00;7.00;;;-1.70;99.90;;;;;;5092087;28;20227;-70
2024/01/09 07:40:01;;;;;;;7.93;7.13;;;-1.70;99.90;;;;;;5093219;28;20586;-69
2024/01/09 07:42:26;;;;;;;7.63;6.80;;;-1.70;99.90;;;;;;5084265;28;20638;-77
2024/01/09 07:44:52;;;;;;;7.63;7.00;;;-1.70;99.90;;;;;;5071931;28;20178;-76
2024/01/09 07:47:18;;;;;;;8.50;7.70;;;-1.70;99.90;;;;;;5072445;28;20273;-70
2024/01/09 07:49:43;;;;;;;8.47;7.63;;;-1.80;99.90;;;;;;5072383;28;20641;-71
2024/01/09 07:52:09;;;;;;;8.63;7.73;;;-1.80;99.90;;;;;;5077084;28;20590;-76
2024/01/09 07:54:35;;;;;;;7.87;7.17;;;-1.80;99.90;;;;;;5092172;28;20166;-75
2024/01/09 07:57:01;;;;;;;10.67;9.47;;;-1.80;99.90;;;;;;5092706;28;20173;-77
2024/01/09 07:59:27;;;;;;;9.35;8.32;;;-1.90;99.90;;;;;;5092780;28;20208;-73
2024/01/09 08:01:54;;;;;;;11.77;9.40;;;-1.90;99.90;;;;;;5093046;28;20194;-77
2024/01/09 08:04:23;;;;;;;11.02;9.63;;;-1.90;99.90;;;;;;5091646;28;20416;-77
2024/01/09 08:06:50;;;;;;;9.38;8.35;;;-1.90;99.90;;;;;;5090289;28;20230;-71
2024/01/09 08:09:17;;;;;;;7.72;6.97;;;-2.00;99.90;;;;;;5092694;28;20623;-76
2024/01/09 08:11:44;;;;;;;8.65;7.57;;;-2.20;99.90;;;;;;5092815;28;20262;-76
2024/01/09 08:14:11;;;;;;;11.10;8.63;;;-2.30;99.90;;;;;;5087571;28;20182;-69
2024/01/09 08:16:37;;;;;;;8.68;7.68;;;-2.40;99.90;;;;;;5051745;28;20216;-70
2024/01/09 08:19:04;;;;;;;11.17;8.67;;;-2.40;99.90;;;;;;5067943;28;20647;-75
2024/01/09 08:21:31;;;;;;;11.27;7.95;;;-2.30;99.90;;;;;;5052431;28;20171;-75
2024/01/09 08:23:57;;;;;;;9.40;8.45;;;-2.30;99.90;;;;;;5066804;28;20174;-76
2024/01/09 08:26:22;;;;;;;14.50;7.90;;;-2.20;99.90;;;;;;5070997;28;20194;-76
2024/01/09 08:28:48;;;;;;;10.40;7.50;;;-2.20;99.90;;;;;;5076038;28;20198;-75
2024/01/09 08:31:14;;;;;;;12.17;9.00;;;-2.20;99.90;;;;;;5076061;28;20201;-69
2024/01/09 08:33:39;;;;;;;11.00;9.93;;;-2.20;99.90;;;;;;5074786;28;20213;-74
2024/01/09 08:36:05;;;;;;;13.70;9.77;;;-2.20;99.90;;;;;;5075094;28;20500;-78
2024/01/09 08:38:31;;;;;;;11.83;9.73;;;-2.10;99.90;;;;;;5075700;28;20601;-77
2024/01/09 08:40:56;;;;;;;11.90;10.03;;;-2.20;99.90;;;;;;5074963;28;20178;-76
2024/01/09 08:43:23;;;;;;;10.23;9.27;;;-2.20;99.90;;;;;;5075864;28;20623;-71
2024/01/09 08:45:49;;;;;;;10.30;9.43;;;-2.20;99.90;;;;;;5072784;28;20584;-74
2024/01/09 08:48:15;;;;;;;8.75;8.05;;;-2.20;99.90;;;;;;5075635;28;20209;-71
2024/01/09 08:50:41;;;;;;;11.43;9.27;;;-2.20;99.90;;;;;;5074433;28;20624;-70
2024/01/09 08:53:07;;;;;;;9.50;8.60;;;-2.20;99.90;;;;;;5090827;28;20265;-77
2024/01/09 08:55:33;;;;;;;9.60;8.70;;;-2.20;99.90;;;;;;5094864;28;20527;-75
2024/01/09 08:57:59;;;;;;;10.05;9.02;;;-2.10;99.90;;;;;;5095760;28;20194;-77
2024/01/09 09:00:25;;;;;;;10.17;9.10;;;-2.10;99.90;;;;;;5095856;28;20177;-76
2024/01/09 09:02:51;;;;;;;48.70;39.93;;;-2.10;99.90;;;;;;5095032;28;20172;-70
2024/01/09 09:05:17;;;;;;;22.97;19.73;;;-2.00;99.90;;;;;;5094364;28;20222;-70
2024/01/09 09:07:43;;;;;;;12.05;10.88;;;-2.00;99.90;;;;;;5070179;28;21034;-76
2024/01/09 09:10:09;;;;;;;10.50;9.43;;;-2.00;99.90;;;;;;5055262;28;20254;-70
2024/01/09 09:12:35;;;;;;;10.30;8.80;;;-2.00;99.90;;;;;;5054098;28;20497;-76
2024/01/09 09:15:03;;;;;;;12.27;8.30;;;-1.90;99.90;;;;;;5054484;28;20531;-76
2024/01/09 09:17:29;;;;;;;11.05;9.40;;;-1.90;99.90;;;;;;5055160;28;20226;-74
2024/01/09 09:19:54;;;;;;;12.77;10.15;;;-1.80;99.90;;;;;;5068532;28;20199;-74
2024/01/09 09:22:23;;;;;;;12.53;11.13;;;-1.80;99.90;;;;;;5081924;28;20687;-77
2024/01/09 09:24:49;;;;;;;12.70;9.77;;;-1.70;99.90;;;;;;5054173;28;20179;-77
2024/01/09 09:27:15;;;;;;;9.77;8.75;;;-1.60;99.90;;;;;;5054852;28;20203;-70
2024/01/09 09:29:41;;;;;;;10.93;9.80;;;-1.50;99.90;;;;;;5055035;28;20173;-73
2024/01/09 09:32:07;;;;;;;13.18;10.13;;;-1.50;99.90;;;;;;5054928;28;20166;-74
2024/01/09 09:34:33;;;;;;;17.50;15.77;;;-1.40;99.90;;;;;;5090488;28;20182;-77
2024/01/09 09:36:58;;;;;;;17.07;15.13;;;-1.30;99.90;;;;;;5090885;28;20168;-70
2024/01/09 09:39:24;;;;;;;14.30;12.80;;;-1.20;99.90;;;;;;5059672;28;20428;-71
2024/01/09 09:41:56;;;;;;;13.90;12.40;;;-1.00;99.90;;;;;;5073275;28;20220;-77
2024/01/09 09:44:24;;;;;;;14.30;11.70;;;-0.90;99.90;;;;;;5073455;28;20267;-70
2024/01/09 09:46:51;;;;;;;12.65;10.95;;;-0.80;99.90;;;;;;5072757;28;20201;-80
2024/01/09 09:49:22;;;;;;;13.27;11.27;;;-0.60;99.90;;;;;;5074550;28;20197;-80
2024/01/09 09:51:49;;;;;;;11.70;10.60;;;-0.50;99.90;;;;;;5074108;28;20204;-72
2024/01/09 09:54:15;;;;;;;14.17;11.90;;;-0.30;99.90;;;;;;5091405;28;20415;-73
2024/01/09 09:56:41;;;;;;;17.37;11.03;;;-0.10;99.90;;;;;;5093843;28;20400;-72
2024/01/09 09:59:09;;;;;;;15.07;12.27;;;0.10;99.90;;;;;;5094712;28;20419;-77
2024/01/09 10:01:35;;;;;;;17.07;11.40;;;0.20;99.90;;;;;;5093379;28;20919;-72
2024/01/09 10:04:29;;;;;;;14.57;11.47;;;0.30;99.90;;;;;;5094584;28;20415;-76
2024/01/09 10:06:57;;;;;;;10.37;9.17;;;0.40;99.90;;;;;;5092780;28;20427;-76
2024/01/09 10:09:26;;;;;;;9.13;8.20;;;0.50;99.90;;;;;;5089047;28;20455;-79
2024/01/09 10:11:52;;;;;;;9.50;8.57;;;0.50;99.90;;;;;;5094294;28;20745;-78
2024/01/09 10:14:18;;;;;;;9.63;8.20;;;0.50;99.90;;;;;;5093406;28;20406;-78
2024/01/09 10:16:55;;;;;;;8.23;7.10;;;0.50;99.90;;;;;;5093416;28;20392;-75
2024/01/09 10:19:22;;;;;;;10.27;8.07;;;0.60;99.90;;;;;;5092870;28;20427;-79
2024/01/09 10:21:48;;;;;;;8.30;7.50;;;0.50;99.90;;;;;;5093128;28;20396;-72
2024/01/09 10:24:15;;;;;;;9.03;8.13;;;0.30;99.90;;;;;;5094163;28;20397;-72
2024/01/09 10:26:41;;;;;;;18.10;7.83;;;0.20;99.90;;;;;;5093204;28;20391;-72
2024/01/09 10:29:10;;;;;;;15.37;8.70;;;0.10;99.90;;;;;;5093980;28;20474;-80
2024/01/09 10:31:37;;;;;;;9.27;8.57;;;0.00;99.90;;;;;;5093659;28;20435;-75
2024/01/09 10:34:03;;;;;;;12.83;10.00;;;0.10;99.90;;;;;;5093029;28;20400;-72
2024/01/09 10:36:28;;;;;;;12.10;8.27;;;0.00;99.90;;;;;;5092004;28;20482;-79
2024/01/09 10:39:06;;;;;;;11.20;9.53;;;-0.10;99.90;;;;;;5093993;28;20200;-73
2024/01/09 10:41:33;;;;;;;10.77;9.67;;;0.00;99.90;;;;;;5093925;28;20264;-72
2024/01/09 10:44:00;;;;;;;15.53;10.10;;;0.10;99.90;;;;;;5093769;28;20914;-80
2024/01/09 10:46:27;;;;;;;14.43;10.73;;;0.20;99.90;;;;;;5092917;28;20453;-76
2024/01/09 10:48:54;;;;;;;10.33;9.40;;;0.20;99.90;;;;;;5093071;28;20483;-75
2024/01/09 10:51:22;;;;;;;9.00;8.13;;;0.30;99.90;;;;;;5092525;28;20396;-72
2024/01/09 10:53:50;;;;;;;9.30;8.40;;;0.20;99.90;;;;;;5092716;28;20406;-73
2024/01/09 10:56:16;;;;;;;9.93;8.97;;;0.10;99.90;;;;;;5092684;28;20399;-79
2024/01/09 10:58:46;;;;;;;9.80;8.80;;;0.00;99.90;;;;;;5093339;28;20430;-81
2024/01/09 11:01:13;;;;;;;12.47;10.17;;;0.00;99.90;;;;;;5092242;28;20953;-80
2024/01/09 11:03:39;;;;;;;9.93;8.90;;;0.00;99.90;;;;;;5091845;28;20407;-74
2024/01/09 11:06:07;;;;;;;8.40;7.70;;;0.10;99.90;;;;;;5066350;28;20550;-72
2024/01/09 11:08:36;;;;;;;9.97;8.93;;;0.00;99.90;;;;;;5053018;28;20461;-79
2024/01/09 11:11:08;;;;;;;9.27;8.37;;;0.00;99.90;;;;;;5052033;28;20445;-75
2024/01/09 11:13:39;;;;;;;10.00;9.00;;;0.10;99.90;;;;;;5053250;28;20875;-79
2024/01/09 11:16:07;;;;;;;10.23;8.80;;;0.40;99.90;;;;;;5052343;28;20406;-72
2024/01/09 11:18:35;;;;;;;8.30;7.43;;;0.60;99.90;;;;;;5058209;28;20436;-79
2024/01/09 11:21:02;;;;;;;7.93;6.90;;;0.60;99.90;;;;;;5087234;28;20414;-72
2024/01/09 11:23:43;;;;;;;9.50;6.90;;;0.60;99.90;;;;;;5053069;28;20444;-73
2024/01/09 11:26:10;;;;;;;8.80;8.00;;;0.60;99.90;;;;;;5063292;28;20607;-72
2024/01/09 11:28:36;;;;;;;9.40;8.50;;;0.70;99.90;;;;;;5093150;28;20504;-73
2024/01/09 11:31:06;;;;;;;13.30;7.40;;;0.80;99.90;;;;;;5092604;28;20400;-72
2024/01/09 11:33:32;;;;;;;8.17;7.30;;;0.70;99.90;;;;;;5075668;28;20408;-79
2024/01/09 11:36:26;;;;;;;8.50;7.57;;;0.80;99.90;;;;;;5071970;28;20396;-74
2024/01/09 11:38:55;;;;;;;8.57;7.77;;;1.00;99.90;;;;;;5047597;28;20842;-79
2024/01/09 11:41:23;;;;;;;10.00;8.33;;;0.90;99.90;;;;;;5052951;28;20906;-79
2024/01/09 11:44:00;;;;;;;11.13;8.63;;;0.80;99.90;;;;;;5052817;28;20823;-73
2024/01/09 11:46:28;;;;;;;8.50;7.80;;;0.70;99.90;;;;;;5050689;28;20432;-72
2024/01/09 11:48:55;;;;;;;10.00;8.37;;;0.70;99.90;;;;;;5091655;28;20451;-79
2024/01/09 11:51:24;;;;;;;9.00;8.10;;;0.60;99.90;;;;;;5091204;28;20422;-81
2024/01/09 11:53:50;;;;;;;12.50;8.60;;;0.50;99.90;;;;;;5093115;28;20478;-80
2024/01/09 11:56:17;;;;;;;9.87;8.93;;;0.50;99.90;;;;;;5090865;28;20975;-78
2024/01/09 11:58:44;;;;;;;9.83;8.80;;;0.60;99.90;;;;;;5092957;28;20423;-81
2024/01/09 12:01:10;;;;;;;8.77;7.37;;;0.60;99.90;;;;;;5080786;28;20961;-80
2024/01/09 12:03:37;;;;;;;9.03;7.73;;;0.60;99.90;;;;;;5076823;28;20404;-82
2024/01/09 12:06:04;;;;;;;8.77;7.87;;;0.70;99.90;;;;;;5075179;28;20424;-74
2024/01/09 12:08:34;;;;;;;10.83;8.57;;;0.80;99.90;;;;;;5091123;28;20482;-79
2024/01/09 12:11:02;;;;;;;9.97;9.07;;;0.80;99.90;;;;;;5096679;28;20876;-74
2024/01/09 12:13:29;;;;;;;10.47;9.07;;;0.80;99.90;;;;;;5096626;28;20418;-73
2024/01/09 12:15:55;;;;;;;13.27;8.27;;;0.70;99.90;;;;;;5095802;28;20392;-71
2024/01/09 12:18:20;;;;;;;10.33;7.93;;;0.50;99.90;;;;;;5095359;28;20458;-72
2024/01/09 12:20:47;;;;;;;9.70;8.63;;;0.50;99.90;;;;;;5096658;28;20162;-82
2024/01/09 12:23:13;;;;;;;10.30;9.20;;;0.50;99.90;;;;;;5095401;28;20184;-73
2024/01/09 12:25:39;;;;;;;9.83;8.83;;;0.60;99.90;;;;;;5094587;28;20486;-75
2024/01/09 12:28:05;;;;;;;9.07;8.17;;;0.50;99.90;;;;;;5096130;28;20797;-80
2024/01/09 12:30:32;;;;;;;9.80;8.90;;;0.50;99.90;;;;;;5096430;28;20714;-81
2024/01/09 12:32:58;;;;;;;11.70;10.47;;;0.50;99.90;;;;;;5095147;28;20498;-73
2024/01/09 12:35:24;;;;;;;10.53;9.43;;;0.50;99.90;;;;;;5095395;28;20392;-80
2024/01/09 12:37:50;;;;;;;11.43;9.43;;;0.50;99.90;;;;;;5095160;28;20428;-73
2024/01/09 12:40:16;;;;;;;10.93;8.40;;;0.40;99.90;;;;;;5096318;28;20888;-72
2024/01/09 12:42:42;;;;;;;13.07;9.50;;;0.40;99.90;;;;;;5054359;28;20414;-74